createdAt,value
2022-12-19T00:01:58.764Z,100356.85
2022-12-19T00:04:26.849Z,100350.58
2022-12-19T00:06:58.899Z,100341.64
2022-12-19T00:09:27.239Z,100329.50
2022-12-19T00:11:55.347Z,100325.47
2022-12-19T00:14:23.327Z,100325.78
2022-12-19T00:16:51.438Z,100322.48
2022-12-19T00:19:19.529Z,100315.09
2022-12-19T00:21:47.829Z,100312.95
2022-12-19T00:24:20.743Z,100318.45
2022-12-19T00:26:50.352Z,100330.05
2022-12-19T00:29:18.470Z,100323.83
2022-12-19T00:31:46.705Z,100320.54
2022-12-19T00:34:15.875Z,100322.23
2022-12-19T00:36:43.801Z,100322.20
2022-12-19T00:39:11.957Z,100316.08
2022-12-19T00:41:41.637Z,100314.98
2022-12-19T00:44:17.540Z,100318.77
2022-12-19T00:46:51.838Z,100319.34
2022-12-19T00:49:21.391Z,100321.76
2022-12-19T00:51:49.875Z,100312.80
2022-12-19T00:54:17.919Z,100313.17
2022-12-19T00:56:46.303Z,100321.33
2022-12-19T00:59:14.597Z,100324.79
2022-12-19T01:01:45.402Z,100329.29
2022-12-19T01:04:34.369Z,100322.66
2022-12-19T01:07:05.829Z,100319.08
2022-12-19T01:09:35.971Z,100314.29
2022-12-19T01:12:24.575Z,100315.02
2022-12-19T01:14:57.711Z,100308.20
2022-12-19T01:17:44.072Z,100299.54
2022-12-19T01:20:15.206Z,100296.48
2022-12-19T01:22:43.297Z,100298.40
2022-12-19T01:25:12.240Z,100293.07
2022-12-19T01:27:40.442Z,100285.19
2022-12-19T01:30:08.536Z,100274.55
2022-12-19T01:32:37.550Z,100272.39
2022-12-19T01:35:06.347Z,100266.32
2022-12-19T01:37:37.690Z,100259.20
2022-12-19T01:40:06.196Z,100252.84
2022-12-19T01:42:37.555Z,100246.52
2022-12-19T01:45:08.459Z,100243.91
2022-12-19T01:47:43.794Z,100240.48
2022-12-19T01:50:23.874Z,100242.70
2022-12-19T01:52:53.952Z,100238.64
2022-12-19T01:55:22.666Z,100242.88
2022-12-19T01:57:52.354Z,100239.41
2022-12-19T02:00:21.098Z,100238.61
2022-12-19T02:03:19.330Z,100225.86
2022-12-19T02:05:48.160Z,100222.85
2022-12-19T02:08:16.680Z,100216.86
2022-12-19T02:10:44.942Z,100219.20
2022-12-19T02:13:15.320Z,100226.09
2022-12-19T02:15:59.599Z,100219.81
2022-12-19T02:18:38.625Z,100215.09
2022-12-19T02:21:15.824Z,100213.92
2022-12-19T02:24:09.019Z,100211.87
2022-12-19T02:26:37.431Z,100211.95
2022-12-19T02:29:21.027Z,100210.70
2022-12-19T02:31:57.350Z,100212.96
2022-12-19T02:34:44.855Z,100217.24
2022-12-19T02:37:29.562Z,100221.59
2022-12-19T02:40:09.447Z,100215.98
2022-12-19T02:42:43.797Z,100207.99
2022-12-19T02:45:23.366Z,100206.52
2022-12-19T02:48:07.362Z,100203.48
2022-12-19T02:50:40.519Z,100208.85
2022-12-19T02:53:14.379Z,100206.59
2022-12-19T02:56:19.836Z,100202.19
2022-12-19T02:59:08.359Z,100205.78
2022-12-19T03:02:15.633Z,100206.80
2022-12-19T03:04:59.645Z,100203.50
2022-12-19T03:07:28.010Z,100192.48
2022-12-19T03:10:09.259Z,100188.30
2022-12-19T03:12:45.439Z,100179.39
2022-12-19T03:15:13.602Z,100176.51
2022-12-19T03:17:42.754Z,100175.42
2022-12-19T03:20:24.031Z,100180.38
2022-12-19T03:22:51.999Z,100180.08
2022-12-19T03:25:22.508Z,100182.04
2022-12-19T03:27:51.912Z,100183.83
2022-12-19T03:30:19.928Z,100191.80
2022-12-19T03:32:48.436Z,100195.81
2022-12-19T03:35:22.308Z,100196.94
2022-12-19T03:37:52.765Z,100196.73
2022-12-19T03:40:25.765Z,100193.09
2022-12-19T03:43:09.678Z,100191.76
2022-12-19T03:46:06.050Z,100186.20
2022-12-19T03:48:43.995Z,100177.58
2022-12-19T03:51:28.025Z,100171.73
2022-12-19T03:53:56.403Z,100175.63
2022-12-19T03:56:39.643Z,100171.44
2022-12-19T03:59:13.820Z,100173.85
2022-12-19T04:01:42.287Z,100174.89
2022-12-19T04:04:10.890Z,100177.45
2022-12-19T04:06:40.584Z,100170.42
2022-12-19T04:09:09.765Z,100181.77
2022-12-19T04:11:45.143Z,100175.94
2022-12-19T04:14:17.445Z,100165.98
2022-12-19T04:16:52.031Z,100159.45
2022-12-19T04:19:51.174Z,100156.29
2022-12-19T04:22:40.852Z,100152.34
2022-12-19T04:25:16.982Z,100149.31
2022-12-19T04:28:02.054Z,100150.21
2022-12-19T04:30:30.502Z,100144.63
2022-12-19T04:33:05.530Z,100144.78
2022-12-19T04:35:37.239Z,100138.29
2022-12-19T04:38:06.562Z,100136.40
2022-12-19T04:40:40.929Z,100127.73
2022-12-19T04:43:09.854Z,100136.64
2022-12-19T04:45:37.996Z,100141.34
2022-12-19T04:48:08.117Z,100140.27
2022-12-19T04:50:37.045Z,100139.03
2022-12-19T04:53:06.310Z,100136.18
2022-12-19T04:55:35.090Z,100139.15
2022-12-19T04:58:07.141Z,100134.79
2022-12-19T05:00:35.423Z,100135.25
2022-12-19T05:03:03.718Z,100133.88
2022-12-19T05:05:31.822Z,100127.08
2022-12-19T05:07:59.808Z,100125.55
2022-12-19T05:10:27.868Z,100112.88
2022-12-19T05:12:55.971Z,100111.94
2022-12-19T05:15:26.260Z,100114.19
2022-12-19T05:17:54.395Z,100114.27
2022-12-19T05:20:22.408Z,100120.17
2022-12-19T05:22:51.547Z,100122.36
2022-12-19T05:25:19.764Z,100117.86
2022-12-19T05:27:47.736Z,100117.58
2022-12-19T05:30:17.224Z,100116.04
2022-12-19T05:32:45.263Z,100119.67
2022-12-19T05:35:13.181Z,100122.25
2022-12-19T05:37:41.434Z,100132.08
2022-12-19T05:40:09.636Z,100127.46
2022-12-19T05:42:37.879Z,100127.69
2022-12-19T05:45:06.357Z,100124.28
2022-12-19T05:47:34.313Z,100119.77
2022-12-19T05:50:02.904Z,100117.90
2022-12-19T05:52:31.142Z,100117.83
2022-12-19T05:54:59.330Z,100114.27
2022-12-19T05:57:27.347Z,100110.42
2022-12-19T05:59:55.598Z,100105.88
2022-12-19T06:02:24.661Z,100104.67
2022-12-19T06:04:53.291Z,100103.10
2022-12-19T06:07:21.535Z,100097.61
2022-12-19T06:09:49.671Z,100099.55
2022-12-19T06:12:17.749Z,100098.56
2022-12-19T06:14:45.803Z,100095.20
2022-12-19T06:17:14.065Z,100101.64
2022-12-19T06:19:42.142Z,100095.95
2022-12-19T06:22:15.204Z,100108.11
2022-12-19T06:24:43.388Z,100096.37
2022-12-19T06:27:11.447Z,100107.15
2022-12-19T06:29:39.331Z,100103.59
2022-12-19T06:32:07.364Z,100096.79
2022-12-19T06:35:03.134Z,100094.80
2022-12-19T06:37:26.256Z,100096.86
2022-12-19T06:39:54.473Z,100094.91
2022-12-19T06:42:25.689Z,100094.14
2022-12-19T06:44:56.076Z,100096.63
2022-12-19T06:47:24.762Z,100097.40
2022-12-19T06:49:52.882Z,100101.52
2022-12-19T06:52:20.865Z,100103.83
2022-12-19T06:54:51.360Z,100106.06
2022-12-19T06:57:19.221Z,100101.81
2022-12-19T06:59:47.085Z,100096.37
2022-12-19T07:02:25.179Z,100097.31
2022-12-19T07:05:00.985Z,100095.58
2022-12-19T07:07:29.833Z,100088.76
2022-12-19T07:09:57.972Z,100094.86
2022-12-19T07:12:27.161Z,100098.48
2022-12-19T07:14:55.177Z,100100.20
2022-12-19T07:17:25.910Z,100097.11
2022-12-19T07:19:59.002Z,100098.53
2022-12-19T07:22:33.084Z,100104.79
2022-12-19T07:25:04.440Z,100097.65
2022-12-19T07:27:36.418Z,100099.84
2022-12-19T07:30:08.799Z,100101.69
2022-12-19T07:32:40.012Z,100105.55
2022-12-19T07:35:08.638Z,100097.20
2022-12-19T07:37:36.740Z,100095.33
2022-12-19T07:40:05.027Z,100093.65
2022-12-19T07:42:34.161Z,100099.39
2022-12-19T07:45:02.470Z,100100.77
2022-12-19T07:47:30.594Z,100104.57
2022-12-19T07:49:58.511Z,100099.88
2022-12-19T07:52:26.748Z,100098.67
2022-12-19T07:54:54.791Z,100095.34
2022-12-19T07:57:22.701Z,100090.33
2022-12-19T07:59:51.412Z,100082.86
2022-12-19T08:02:19.684Z,100075.85
2022-12-19T08:04:48.073Z,100068.27
2022-12-19T08:07:16.112Z,100078.73
2022-12-19T08:09:44.511Z,100084.20
2022-12-19T08:12:12.856Z,100083.55
2022-12-19T08:14:41.022Z,100080.23
2022-12-19T08:17:25.086Z,100077.67
2022-12-19T08:19:53.296Z,100070.58
2022-12-19T08:22:21.586Z,100065.13
2022-12-19T08:24:49.679Z,100065.77
2022-12-19T08:27:18.098Z,100079.77
2022-12-19T08:29:46.188Z,100076.66
2022-12-19T08:32:20.542Z,100075.92
2022-12-19T08:34:50.738Z,100077.84
2022-12-19T08:37:18.854Z,100080.48
2022-12-19T08:39:46.800Z,100078.21
2022-12-19T08:42:14.961Z,100070.44
2022-12-19T08:44:43.506Z,100065.72
2022-12-19T08:47:11.506Z,100065.66
2022-12-19T08:49:39.625Z,100065.16
2022-12-19T08:52:07.923Z,100061.99
2022-12-19T08:54:36.187Z,100057.16
2022-12-19T08:57:04.434Z,100061.92
2022-12-19T08:59:34.634Z,100064.42
2022-12-19T09:02:06.048Z,100066.59
2022-12-19T09:06:04.533Z,100064.16
2022-12-19T09:07:24.184Z,100063.13
2022-12-19T09:09:52.064Z,100042.86
2022-12-19T09:12:20.464Z,100035.66
2022-12-19T09:14:48.485Z,100037.10
2022-12-19T09:17:16.509Z,100045.23
2022-12-19T09:19:45.558Z,100042.89
2022-12-19T09:22:16.882Z,100038.24
2022-12-19T09:24:47.247Z,100039.64
2022-12-19T09:27:16.479Z,100040.95
2022-12-19T09:29:44.890Z,100036.11
2022-12-19T09:32:13.437Z,100037.78
2022-12-19T09:34:41.482Z,100038.48
2022-12-19T09:37:16.646Z,100036.41
2022-12-19T09:39:46.881Z,100042.85
2022-12-19T09:42:46.206Z,100041.04
2022-12-19T09:45:58.122Z,100044.41
2022-12-19T09:48:26.133Z,100038.77
2022-12-19T09:51:09.421Z,100025.16
2022-12-19T09:53:45.105Z,100020.42
2022-12-19T09:56:26.905Z,100008.41
2022-12-19T09:59:03.093Z,99998.23
2022-12-19T10:01:48.911Z,99991.52
2022-12-19T10:04:19.211Z,99988.27
2022-12-19T10:07:11.128Z,99993.62
2022-12-19T10:12:11.392Z,99995.59
2022-12-19T10:12:43.074Z,99990.70
2022-12-19T10:15:26.137Z,99992.84
2022-12-19T10:18:25.348Z,99987.14
2022-12-19T10:21:09.504Z,99986.30
2022-12-19T10:24:34.843Z,99986.64
2022-12-19T10:27:16.816Z,99981.21
2022-12-19T10:29:53.685Z,99980.89
2022-12-19T10:32:40.458Z,99972.88
2022-12-19T10:35:13.412Z,99966.75
2022-12-19T10:37:51.784Z,99956.92
2022-12-19T10:40:33.131Z,99952.11
2022-12-19T10:43:25.678Z,99942.77
2022-12-19T10:46:11.604Z,99941.12
2022-12-19T10:48:39.904Z,99938.14
2022-12-19T10:51:25.933Z,99931.48
2022-12-19T10:53:57.160Z,99930.76
2022-12-19T10:56:36.774Z,99932.36
2022-12-19T10:59:16.859Z,99934.27
2022-12-19T11:02:32.944Z,99923.52
2022-12-19T11:05:02.277Z,99923.42
2022-12-19T11:07:30.406Z,99918.30
2022-12-19T11:11:01.443Z,99914.69
2022-12-19T11:16:51.084Z,99912.77
2022-12-19T11:22:06.784Z,99905.45
2022-12-19T11:29:16.517Z,99903.92
2022-12-19T11:29:40.543Z,99897.95
2022-12-19T11:30:34.358Z,99895.36
2022-12-19T11:30:37.768Z,99894.95
2022-12-19T11:33:19.167Z,99884.02
2022-12-19T11:35:53.138Z,99877.36
2022-12-19T11:38:33.163Z,99874.48
2022-12-19T11:41:09.796Z,99869.71
2022-12-19T11:43:49.570Z,99867.08
2022-12-19T11:46:36.367Z,99854.98
2022-12-19T11:49:31.257Z,99857.09
2022-12-19T11:52:54.296Z,99853.90
2022-12-19T11:55:14.757Z,99853.63
2022-12-19T11:57:43.140Z,99857.25
2022-12-19T12:00:18.358Z,99853.95
2022-12-19T12:03:06.231Z,99851.90
2022-12-19T12:05:46.224Z,99841.94
2022-12-19T12:09:18.278Z,99839.94
2022-12-19T12:15:12.682Z,99844.90
2022-12-19T12:27:10.064Z,99841.58
2022-12-19T12:31:00.704Z,99831.98
2022-12-19T12:31:17.475Z,99824.10
2022-12-19T12:31:51.155Z,99811.95
2022-12-19T12:31:53.451Z,99812.08
2022-12-19T12:32:05.780Z,99816.20
2022-12-19T12:35:47.062Z,99806.34
2022-12-19T12:37:54.151Z,99804.30
2022-12-19T12:38:34.601Z,99801.34
2022-12-19T12:41:03.194Z,99799.96
2022-12-19T12:43:44.484Z,99802.42
2022-12-19T12:46:19.930Z,99800.73
2022-12-19T12:49:03.329Z,99801.38
2022-12-19T12:51:33.715Z,99795.63
2022-12-19T12:54:14.198Z,99790.05
2022-12-19T12:56:42.967Z,99787.17
2022-12-19T12:59:24.432Z,99787.13
2022-12-19T13:01:55.806Z,99782.67
2022-12-19T13:04:34.978Z,99780.42
2022-12-19T13:07:40.694Z,99779.13
2022-12-19T13:10:30.799Z,99775.17
2022-12-19T13:13:00.585Z,99769.08
2022-12-19T13:15:28.615Z,99766.90
2022-12-19T13:17:56.529Z,99766.48
2022-12-19T13:20:25.624Z,99760.15
2022-12-19T13:22:58.792Z,99766.04
2022-12-19T13:25:26.771Z,99755.31
2022-12-19T13:28:02.210Z,99760.42
2022-12-19T13:30:31.238Z,99762.29
2022-12-19T13:33:00.277Z,99757.28
2022-12-19T13:36:45.910Z,99754.02
2022-12-19T13:39:59.856Z,99754.14
2022-12-19T13:41:58.647Z,99747.17
2022-12-19T13:44:26.996Z,99742.80
2022-12-19T13:46:56.177Z,99742.13
2022-12-19T13:49:31.658Z,99741.10
2022-12-19T13:52:04.689Z,99745.10
2022-12-19T13:54:45.585Z,99742.51
2022-12-19T13:57:26.455Z,99735.56
2022-12-19T14:00:00.058Z,99727.24
2022-12-19T14:02:44.146Z,99728.11
2022-12-19T14:05:23.722Z,99728.58
2022-12-19T14:08:13.410Z,99734.80
2022-12-19T14:11:40.903Z,99723.69
2022-12-19T14:14:03.144Z,99727.48
2022-12-19T14:16:43.602Z,99724.35
2022-12-19T14:19:40.460Z,99721.74
2022-12-19T14:22:20.786Z,99724.13
2022-12-19T14:24:54.836Z,99723.73
2022-12-19T14:28:25.963Z,99712.27
2022-12-19T14:30:32.405Z,99713.92
2022-12-19T14:33:44.908Z,99709.01
2022-12-19T14:36:10.603Z,99703.23
2022-12-19T14:39:22.661Z,99699.33
2022-12-19T14:42:01.346Z,99701.27
2022-12-19T14:52:35.511Z,99699.91
2022-12-19T14:52:51.982Z,99700.65
2022-12-19T14:54:11.326Z,99700.73
2022-12-19T14:54:29.065Z,99695.64
2022-12-19T14:59:04.878Z,99686.52
2022-12-19T15:01:33.940Z,99678.60
2022-12-19T15:04:51.738Z,99673.41
2022-12-19T15:07:12.409Z,99674.16
2022-12-19T15:11:08.385Z,99667.49
2022-12-19T15:14:49.427Z,99665.11
2022-12-19T15:15:59.442Z,99660.20
2022-12-19T15:18:37.119Z,99657.45
2022-12-19T15:21:08.509Z,99650.16
2022-12-19T15:23:36.680Z,99651.34
2022-12-19T15:26:11.196Z,99662.02
2022-12-19T15:28:43.290Z,99659.17
2022-12-19T15:31:38.697Z,99657.60
2022-12-19T15:34:37.194Z,99657.70
2022-12-19T15:37:06.284Z,99648.27
2022-12-19T15:39:34.107Z,99649.80
2022-12-19T15:42:02.027Z,99651.05
2022-12-19T15:44:38.939Z,99649.05
2022-12-19T15:47:16.931Z,99649.20
2022-12-19T15:49:45.690Z,99643.59
2022-12-19T15:52:17.914Z,99647.73
2022-12-19T15:54:49.299Z,99645.52
2022-12-19T15:57:21.315Z,99640.49
2022-12-19T15:59:49.395Z,99628.55
2022-12-19T16:02:24.793Z,99630.58
2022-12-19T16:04:59.795Z,99626.95
2022-12-19T16:07:31.693Z,99627.83
2022-12-19T16:09:59.667Z,99628.97
2022-12-19T16:12:51.233Z,99623.80
2022-12-19T16:15:30.433Z,99622.95
2022-12-19T16:18:00.350Z,99628.59
2022-12-19T16:20:31.182Z,99622.27
2022-12-19T16:22:59.086Z,99621.80
2022-12-19T16:25:53.543Z,99619.26
2022-12-19T16:28:35.433Z,99610.48
2022-12-19T16:31:16.181Z,99602.02
2022-12-19T16:33:44.298Z,99600.08
2022-12-19T16:36:12.244Z,99595.38
2022-12-19T16:38:40.106Z,99593.30
2022-12-19T16:41:18.224Z,99597.11
2022-12-19T16:43:46.795Z,99592.73
2022-12-19T16:46:20.199Z,99592.16
2022-12-19T16:48:49.245Z,99584.55
2022-12-19T16:51:21.886Z,99589.86
2022-12-19T16:53:52.291Z,99581.08
2022-12-19T16:56:29.872Z,99583.35
2022-12-19T16:59:01.661Z,99575.10
2022-12-19T17:01:30.190Z,99574.66
2022-12-19T17:03:58.118Z,99574.70
2022-12-19T17:06:26.799Z,99580.62
2022-12-19T17:08:54.939Z,99582.02
2022-12-19T17:11:25.034Z,99579.76
2022-12-19T17:13:55.563Z,99577.83
2022-12-19T17:16:25.659Z,99572.85
2022-12-19T17:18:54.847Z,99575.47
2022-12-19T17:21:23.548Z,99571.74
2022-12-19T17:23:51.995Z,99567.57
2022-12-19T17:26:20.005Z,99574.23
2022-12-19T17:28:48.455Z,99571.96
2022-12-19T17:31:28.252Z,99568.71
2022-12-19T17:33:58.370Z,99574.65
2022-12-19T17:36:36.696Z,99577.63
2022-12-19T17:39:27.199Z,99569.00
2022-12-19T17:41:57.656Z,99571.05
2022-12-19T17:44:25.835Z,99570.72
2022-12-19T17:46:55.020Z,99565.39
2022-12-19T17:49:32.825Z,99561.14
2022-12-19T17:52:00.939Z,99553.79
2022-12-19T17:54:30.850Z,99547.99
2022-12-19T17:56:58.643Z,99550.08
2022-12-19T17:59:26.601Z,99551.08
2022-12-19T18:01:54.783Z,99552.77
2022-12-19T18:04:23.085Z,99550.86
2022-12-19T18:06:51.710Z,99556.25
2022-12-19T18:09:22.156Z,99553.83
2022-12-19T18:11:52.058Z,99550.70
2022-12-19T18:14:20.509Z,99550.03
2022-12-19T18:16:50.586Z,99555.41
2022-12-19T18:19:21.549Z,99553.41
2022-12-19T18:21:49.750Z,99552.45
2022-12-19T18:24:17.917Z,99553.84
2022-12-19T18:26:46.042Z,99548.81
2022-12-19T18:29:14.461Z,99542.24
2022-12-19T18:31:49.989Z,99542.55
2022-12-19T18:34:20.773Z,99535.95
2022-12-19T18:36:48.825Z,99531.14
2022-12-19T18:39:37.057Z,99531.20
2022-12-19T18:42:21.643Z,99524.48
2022-12-19T18:44:49.648Z,99518.13
2022-12-19T18:47:25.615Z,99509.67
2022-12-19T18:49:54.169Z,99508.10
2022-12-19T18:52:22.198Z,99499.16
2022-12-19T18:54:50.231Z,99497.95
2022-12-19T18:57:18.170Z,99504.23
2022-12-19T18:59:47.516Z,99503.57
2022-12-19T19:02:25.966Z,99495.13
2022-12-19T19:04:55.946Z,99492.05
2022-12-19T19:07:24.219Z,99491.59
2022-12-19T19:09:52.335Z,99496.11
2022-12-19T19:12:40.554Z,99495.05
2022-12-19T19:15:08.920Z,99495.19
2022-12-19T19:17:37.045Z,99488.59
2022-12-19T19:20:06.817Z,99479.41
2022-12-19T19:22:35.220Z,99481.61
2022-12-19T19:25:03.439Z,99483.19
2022-12-19T19:27:31.591Z,99481.24
2022-12-19T19:29:59.632Z,99480.38
2022-12-19T19:32:27.733Z,99483.33
2022-12-19T19:34:55.892Z,99484.36
2022-12-19T19:37:23.903Z,99485.76
2022-12-19T19:39:51.947Z,99484.91
2022-12-19T19:42:19.944Z,99479.25
2022-12-19T19:44:50.522Z,99479.96
2022-12-19T19:47:26.058Z,99475.33
2022-12-19T19:49:56.077Z,99478.61
2022-12-19T19:52:24.002Z,99484.97
2022-12-19T19:54:51.979Z,99488.77
2022-12-19T19:57:20.910Z,99485.14
2022-12-19T19:59:48.899Z,99479.31
2022-12-19T20:02:17.857Z,99475.89
2022-12-19T20:04:45.927Z,99477.65
2022-12-19T20:07:14.020Z,99472.88
2022-12-19T20:09:42.041Z,99469.25
2022-12-19T20:12:10.223Z,99461.86
2022-12-19T20:14:38.644Z,99460.81
2022-12-19T20:17:06.550Z,99457.52
2022-12-19T20:19:34.943Z,99454.91
2022-12-19T20:22:03.018Z,99459.91
2022-12-19T20:24:31.398Z,99468.89
2022-12-19T20:26:59.494Z,99471.66
2022-12-19T20:29:27.455Z,99467.36
2022-12-19T20:31:56.614Z,99464.08
2022-12-19T20:34:25.975Z,99460.61
2022-12-19T20:36:53.979Z,99464.39
2022-12-19T20:39:22.279Z,99461.50
2022-12-19T20:41:52.195Z,99460.86
2022-12-19T20:44:24.455Z,99457.64
2022-12-19T20:46:53.108Z,99458.35
2022-12-19T20:49:21.725Z,99451.46
2022-12-19T20:51:49.942Z,99443.02
2022-12-19T20:54:18.402Z,99441.95
2022-12-19T20:56:46.495Z,99438.30
2022-12-19T20:59:14.393Z,99432.40
2022-12-19T21:01:42.759Z,99429.77
2022-12-19T21:04:11.144Z,99429.61
2022-12-19T21:06:39.487Z,99428.42
2022-12-19T21:09:07.743Z,99426.89
2022-12-19T21:11:36.651Z,99425.48
2022-12-19T21:14:06.020Z,99421.64
2022-12-19T21:16:34.225Z,99418.16
2022-12-19T21:19:02.461Z,99415.03
2022-12-19T21:21:30.830Z,99415.38
2022-12-19T21:24:01.241Z,99411.27
2022-12-19T21:26:29.235Z,99408.47
2022-12-19T21:29:00.152Z,99407.22
2022-12-19T21:31:29.982Z,99406.32
2022-12-19T21:33:58.488Z,99410.77
2022-12-19T21:36:27.206Z,99410.59
2022-12-19T21:38:56.132Z,99405.44
2022-12-19T21:41:25.458Z,99403.57
2022-12-19T21:43:55.178Z,99400.16
2022-12-19T21:46:30.772Z,99397.13
2022-12-19T21:49:00.302Z,99391.46
2022-12-19T21:51:29.184Z,99390.26
2022-12-19T21:54:00.782Z,99388.55
2022-12-19T21:56:31.647Z,99396.68
2022-12-19T21:59:03.290Z,99399.42
2022-12-19T22:01:32.669Z,99399.09
2022-12-19T22:04:02.371Z,99406.50
2022-12-19T22:06:32.553Z,99399.94
2022-12-19T22:09:01.973Z,99399.43
2022-12-19T22:11:30.706Z,99401.37
2022-12-19T22:14:00.816Z,99399.14
2022-12-19T22:16:29.417Z,99395.02
2022-12-19T22:18:57.769Z,99391.23
2022-12-19T22:21:26.352Z,99387.97
2022-12-19T22:24:01.771Z,99381.59
2022-12-19T22:26:31.617Z,99384.55
2022-12-19T22:28:59.735Z,99382.83
2022-12-19T22:31:32.868Z,99381.95
2022-12-19T22:34:02.201Z,99374.86
2022-12-19T22:36:32.595Z,99372.30
2022-12-19T22:39:03.197Z,99371.64
2022-12-19T22:41:33.018Z,99367.85
2022-12-19T22:44:01.493Z,99363.54
2022-12-19T22:46:34.989Z,99359.27
2022-12-19T22:49:08.807Z,99358.95
2022-12-19T22:51:38.004Z,99356.70
2022-12-19T22:54:06.436Z,99356.35
2022-12-19T22:56:35.635Z,99358.24
2022-12-19T22:59:08.787Z,99359.09
2022-12-19T23:01:39.894Z,99351.14
2022-12-19T23:04:09.807Z,99349.06
2022-12-19T23:06:38.302Z,99347.52
2022-12-19T23:09:08.716Z,99348.91
2022-12-19T23:11:40.865Z,99347.35
2022-12-19T23:14:09.476Z,99342.53
2022-12-19T23:16:37.649Z,99344.27
2022-12-19T23:19:08.990Z,99341.86
2022-12-19T23:21:37.158Z,99338.77
2022-12-19T23:24:05.546Z,99334.29
2022-12-19T23:26:36.585Z,99331.52
2022-12-19T23:29:07.867Z,99333.77
2022-12-19T23:31:38.771Z,99331.17
2022-12-19T23:34:06.719Z,99334.61
2022-12-19T23:37:09.559Z,99330.30
2022-12-19T23:39:23.549Z,99329.45
2022-12-19T23:41:51.543Z,99338.25
2022-12-19T23:44:19.733Z,99336.35
2022-12-19T23:46:47.708Z,99338.73
2022-12-19T23:49:16.072Z,99344.78
2022-12-19T23:51:43.937Z,99350.47
2022-12-19T23:54:12.068Z,99347.56
2022-12-19T23:56:40.967Z,99337.38
2022-12-19T23:59:08.810Z,99330.98
